createdAt,value
2023-01-12T00:01:48.018Z,8.26
2023-01-12T00:06:49.225Z,8.25
2023-01-12T00:11:50.400Z,8.26
2023-01-12T00:16:51.632Z,8.42
2023-01-12T00:21:58.572Z,8.51
2023-01-12T00:26:59.826Z,8.67
2023-01-12T00:32:01.051Z,8.77
2023-01-12T00:37:02.254Z,8.86
2023-01-12T00:42:22.268Z,8.88
2023-01-12T00:47:23.442Z,8.83
2023-01-12T00:52:30.746Z,8.86
2023-01-12T00:57:32.819Z,8.88
2023-01-12T01:02:33.987Z,8.86
2023-01-12T01:07:35.181Z,8.89
2023-01-12T01:12:36.379Z,8.88
2023-01-12T01:17:37.578Z,8.90
2023-01-12T01:22:38.760Z,8.99
2023-01-12T01:27:40.037Z,9.07
2023-01-12T01:32:42.288Z,9.11
2023-01-12T01:37:43.461Z,9.10
2023-01-12T01:42:44.630Z,9.09
2023-01-12T01:47:45.938Z,9.11
2023-01-12T01:52:47.151Z,9.07
2023-01-12T01:57:48.348Z,9.08
2023-01-12T02:02:49.804Z,9.08
2023-01-12T02:07:51.074Z,9.11
2023-01-12T02:13:10.916Z,9.09
2023-01-12T02:18:12.132Z,9.11
2023-01-12T02:23:13.367Z,9.12
2023-01-12T02:28:14.589Z,9.11
2023-01-12T02:33:15.901Z,9.15
2023-01-12T02:38:17.101Z,9.12
2023-01-12T02:43:18.271Z,9.02
2023-01-12T02:48:19.568Z,8.96
2023-01-12T02:53:20.738Z,8.92
2023-01-12T02:58:21.974Z,8.88
2023-01-12T03:03:23.242Z,8.96
2023-01-12T03:08:27.599Z,8.93
2023-01-12T03:13:29.110Z,8.91
2023-01-12T03:18:30.376Z,8.81
2023-01-12T03:23:31.542Z,8.65
2023-01-12T03:28:32.722Z,8.54
2023-01-12T03:33:33.910Z,8.38
2023-01-12T03:38:35.066Z,8.33
2023-01-12T03:43:36.213Z,8.32
2023-01-12T03:48:37.435Z,8.24
2023-01-12T03:53:38.601Z,8.17
2023-01-12T03:58:39.776Z,8.14
2023-01-12T04:03:41.063Z,8.07
2023-01-12T04:08:42.282Z,8.08
2023-01-12T04:13:43.470Z,8.02
2023-01-12T04:18:44.637Z,7.98
2023-01-12T04:23:45.788Z,7.98
2023-01-12T04:28:47.008Z,7.97
2023-01-12T04:33:48.220Z,7.98
2023-01-12T04:38:49.398Z,8.01
2023-01-12T04:43:50.575Z,8.11
2023-01-12T04:48:51.749Z,8.11
2023-01-12T04:53:53.242Z,8.07
2023-01-12T04:58:54.439Z,8.03
2023-01-12T05:03:55.798Z,7.98
2023-01-12T05:09:16.042Z,7.91
2023-01-12T05:14:17.638Z,7.85
2023-01-12T05:19:18.888Z,7.79
2023-01-12T05:24:20.082Z,7.73
2023-01-12T05:29:21.248Z,7.71
2023-01-12T05:34:22.407Z,7.67
2023-01-12T05:39:23.688Z,7.65
2023-01-12T05:44:25.025Z,7.65
2023-01-12T05:49:26.276Z,7.66
2023-01-12T05:54:27.459Z,7.63
2023-01-12T05:59:28.699Z,7.63
2023-01-12T06:04:30.011Z,7.60
2023-01-12T06:09:31.321Z,7.59
2023-01-12T06:14:32.603Z,7.57
2023-01-12T06:19:34.546Z,7.55
2023-01-12T06:24:35.943Z,7.54
2023-01-12T06:29:37.122Z,7.54
2023-01-12T06:34:38.353Z,7.54
2023-01-12T06:39:39.558Z,7.53
2023-01-12T06:44:40.728Z,7.51
2023-01-12T06:49:41.916Z,7.51
2023-01-12T06:54:43.135Z,7.50
2023-01-12T06:59:44.309Z,7.49
2023-01-12T07:04:45.606Z,7.49
2023-01-12T07:09:46.879Z,7.48
2023-01-12T07:14:48.077Z,7.49
2023-01-12T07:19:49.233Z,7.48
2023-01-12T07:24:50.503Z,7.48
2023-01-12T07:29:51.707Z,7.50
2023-01-12T07:34:52.896Z,7.52
2023-01-12T07:39:54.108Z,7.51
2023-01-12T07:44:55.395Z,7.53
2023-01-12T07:49:56.576Z,7.54
2023-01-12T07:54:58.175Z,7.58
2023-01-12T07:59:59.440Z,7.61
2023-01-12T08:05:00.682Z,7.64
2023-01-12T08:10:01.927Z,7.71
2023-01-12T08:15:04.402Z,7.79
2023-01-12T08:20:05.585Z,7.96
2023-01-12T08:25:06.776Z,8.22
2023-01-12T08:30:08.704Z,8.44
2023-01-12T08:35:09.933Z,8.55
2023-01-12T08:40:11.163Z,8.61
2023-01-12T08:45:12.404Z,8.70
2023-01-12T08:50:14.185Z,8.77
2023-01-12T08:55:15.559Z,8.77
2023-01-12T09:00:16.798Z,8.83
2023-01-12T09:05:18.013Z,8.91
2023-01-12T09:10:19.184Z,8.95
2023-01-12T09:15:20.322Z,9.01
2023-01-12T09:20:21.551Z,9.08
2023-01-12T09:25:22.779Z,9.09
2023-01-12T09:30:23.991Z,9.22
2023-01-12T09:35:25.156Z,9.19
2023-01-12T09:40:26.381Z,9.25
2023-01-12T09:45:46.458Z,9.30
2023-01-12T09:50:47.664Z,9.38
2023-01-12T09:55:48.907Z,9.46
2023-01-12T10:00:50.119Z,9.44
2023-01-12T10:05:52.249Z,9.45
2023-01-12T10:10:53.467Z,9.48
2023-01-12T10:15:54.636Z,9.47
2023-01-12T10:20:55.859Z,9.50
2023-01-12T10:25:57.159Z,9.56
2023-01-12T10:30:58.647Z,9.60
2023-01-12T10:35:59.863Z,9.63
2023-01-12T10:41:01.066Z,9.62
2023-01-12T10:46:02.522Z,9.69
2023-01-12T10:51:03.810Z,9.71
2023-01-12T10:56:05.079Z,9.79
2023-01-12T11:01:06.342Z,9.90
2023-01-12T11:06:07.620Z,10.00
2023-01-12T11:11:08.757Z,10.03
2023-01-12T11:16:09.908Z,10.08
2023-01-12T11:21:11.060Z,10.13
2023-01-12T11:26:12.218Z,10.23
2023-01-12T11:31:13.469Z,10.22
2023-01-12T11:36:15.581Z,10.28
2023-01-12T11:41:19.041Z,10.25
2023-01-12T11:46:20.332Z,10.28
2023-01-12T11:51:21.521Z,10.42
2023-01-12T11:56:22.667Z,10.40
2023-01-12T12:01:23.919Z,10.41
2023-01-12T12:06:25.594Z,10.42
2023-01-12T12:11:26.983Z,10.47
2023-01-12T12:16:28.237Z,10.50
2023-01-12T12:21:29.463Z,10.50
2023-01-12T12:26:30.660Z,10.52
2023-01-12T12:31:32.325Z,10.53
2023-01-12T12:36:33.516Z,10.50
2023-01-12T12:41:53.384Z,10.48
2023-01-12T12:46:54.610Z,10.46
2023-01-12T12:51:55.770Z,10.50
2023-01-12T12:56:56.952Z,10.46
2023-01-12T13:01:58.524Z,10.41
2023-01-12T13:06:59.766Z,10.36
2023-01-12T13:12:01.359Z,10.29
2023-01-12T13:17:02.650Z,10.25
2023-01-12T13:22:03.822Z,10.24
2023-01-12T13:27:05.256Z,10.19
2023-01-12T13:32:06.561Z,10.20
2023-01-12T13:37:07.846Z,10.17
2023-01-12T13:42:27.769Z,10.16
2023-01-12T13:47:32.807Z,10.15
2023-01-12T13:52:35.383Z,10.20
2023-01-12T13:57:39.549Z,10.19
2023-01-12T14:02:40.763Z,10.24
2023-01-12T14:07:41.959Z,10.29
2023-01-12T14:12:43.211Z,10.28
2023-01-12T14:17:58.681Z,10.25
2023-01-12T14:22:59.956Z,10.20
2023-01-12T14:28:01.112Z,10.17
2023-01-12T14:33:02.289Z,10.23
2023-01-12T14:38:03.595Z,10.27
2023-01-12T14:43:23.661Z,10.23
2023-01-12T14:48:24.896Z,10.18
2023-01-12T14:53:26.243Z,10.18
2023-01-12T14:58:28.211Z,10.12
2023-01-12T15:03:42.904Z,10.08
2023-01-12T15:08:44.890Z,10.00
2023-01-12T15:13:46.088Z,9.91
2023-01-12T15:19:05.852Z,9.88
2023-01-12T15:24:25.817Z,9.81
2023-01-12T15:29:26.992Z,9.78
2023-01-12T15:34:28.365Z,9.75
2023-01-12T15:39:29.533Z,9.76
2023-01-12T15:44:30.709Z,9.73
2023-01-12T15:49:31.901Z,9.75
2023-01-12T15:54:33.147Z,9.74
2023-01-12T15:59:34.454Z,9.71
2023-01-12T16:04:42.544Z,9.74
2023-01-12T16:09:47.575Z,9.82
2023-01-12T16:14:48.763Z,9.81
2023-01-12T16:19:50.040Z,9.83
2023-01-12T16:24:51.239Z,9.88
2023-01-12T16:29:52.467Z,9.87
2023-01-12T16:34:53.717Z,9.88
2023-01-12T16:39:55.481Z,10.03
2023-01-12T16:44:56.651Z,10.02
2023-01-12T16:49:57.887Z,9.95
2023-01-12T16:54:59.168Z,9.96
2023-01-12T17:00:00.425Z,10.01
2023-01-12T17:05:02.040Z,10.02
2023-01-12T17:10:03.343Z,9.94
2023-01-12T17:15:04.543Z,9.98
2023-01-12T17:20:06.251Z,9.92
2023-01-12T17:25:07.933Z,9.95
2023-01-12T17:30:09.114Z,10.03
2023-01-12T17:35:10.615Z,10.05
2023-01-12T17:40:11.788Z,10.05
2023-01-12T17:45:12.964Z,10.18
2023-01-12T17:50:14.150Z,10.28
2023-01-12T17:55:15.318Z,10.30
2023-01-12T18:00:16.580Z,10.28
2023-01-12T18:05:17.833Z,10.23
2023-01-12T18:10:18.977Z,10.10
2023-01-12T18:15:20.248Z,9.98
2023-01-12T18:20:21.461Z,9.84
2023-01-12T18:25:22.641Z,9.73
2023-01-12T18:30:23.973Z,9.68
2023-01-12T18:35:25.137Z,9.61
2023-01-12T18:40:26.277Z,9.55
2023-01-12T18:45:28.181Z,9.50
2023-01-12T18:50:48.040Z,9.45
2023-01-12T18:55:54.464Z,9.40
2023-01-12T19:00:59.780Z,9.37
2023-01-12T19:06:14.182Z,9.38
2023-01-12T19:11:15.427Z,9.35
2023-01-12T19:16:35.241Z,9.34
2023-01-12T19:21:55.146Z,9.34
2023-01-12T19:27:14.921Z,9.16
2023-01-12T19:32:16.155Z,9.43
2023-01-12T19:37:17.640Z,9.43
2023-01-12T19:42:37.456Z,9.43
2023-01-12T19:47:38.813Z,9.46
2023-01-12T19:52:39.991Z,9.47
2023-01-12T19:57:42.950Z,9.44
2023-01-12T20:02:44.177Z,9.39
2023-01-12T20:07:45.387Z,9.37
2023-01-12T20:12:46.659Z,9.32
2023-01-12T20:17:48.158Z,9.30
2023-01-12T20:22:49.476Z,9.30
2023-01-12T20:27:50.758Z,9.30
2023-01-12T20:32:52.658Z,9.29
2023-01-12T20:37:53.869Z,9.27
2023-01-12T20:42:55.038Z,9.28
2023-01-12T20:47:56.392Z,9.31
2023-01-12T20:52:57.544Z,9.37
2023-01-12T20:57:58.704Z,9.41
2023-01-12T21:02:59.930Z,9.39
2023-01-12T21:08:07.799Z,9.41
2023-01-12T21:13:09.652Z,9.40
2023-01-12T21:18:10.836Z,9.41
2023-01-12T21:23:12.039Z,9.49
2023-01-12T21:28:13.174Z,9.48
2023-01-12T21:33:14.393Z,9.43
2023-01-12T21:38:15.752Z,9.40
2023-01-12T21:43:18.066Z,9.48
2023-01-12T21:48:19.206Z,9.55
2023-01-12T21:53:21.017Z,9.67
2023-01-12T21:58:22.208Z,9.85
2023-01-12T22:03:23.471Z,9.94
2023-01-12T22:08:24.842Z,10.07
2023-01-12T22:13:25.977Z,10.15
2023-01-12T22:18:27.161Z,10.24
2023-01-12T22:23:28.729Z,10.16
2023-01-12T22:28:29.863Z,10.10
2023-01-12T22:33:31.075Z,10.09
2023-01-12T22:38:32.287Z,10.08
2023-01-12T22:43:38.650Z,10.17
2023-01-12T22:48:39.960Z,10.18
2023-01-12T22:53:41.144Z,10.07
2023-01-12T22:58:42.344Z,10.04
2023-01-12T23:03:43.511Z,10.00
2023-01-12T23:08:44.661Z,10.03
2023-01-12T23:13:46.194Z,10.04
2023-01-12T23:18:47.365Z,10.08
2023-01-12T23:23:48.536Z,10.13
2023-01-12T23:28:49.729Z,10.18
2023-01-12T23:33:50.902Z,10.18
2023-01-12T23:38:52.058Z,10.19
2023-01-12T23:43:53.252Z,10.16
2023-01-12T23:48:54.410Z,10.15
2023-01-12T23:53:59.088Z,10.11
2023-01-12T23:59:00.585Z,10.16
